Terminal Aerodrome Forecast
Issued by NWS Amarillo, TX

Home | Current Version | Previous Version | Text Only | Print | Product List | Glossary On
Versions: 1 2 3 4 5 6 7 8 9 10 11 12 13 14
000
FTUS44 KAMA 302300
TAFGUY
TAF
KGUY 302333Z 3100/3124 18008KT P6SM OVC050
      TEMPO 3100/3104 4SM -RASN BR OVC025
     FM310400 18012KT 3SM -RASN BR OVC010
     FM310800 18010KT 2SM -SN BR OVC004
     FM311600 20012KT 3SM RA BR OVC010=

USA.gov is the U.S. government's official web portal to all federal, state and local government web resources and services.